Aviation Digital Data Service (ADDS)

Output produced by METARs form (2157 UTC 24 March 2019)
found at http://www.aviationweather.gov/metar/data/
 
GBYD 242100Z 33012KT CAVOK 20/17 Q1012
TAF GBYD 241730Z 2418/2524 34008KT CAVOK